Wednesday, October 22, 2014, 9:33 PM EDT

KDOV, Dover Air Force Base

Location: Dover, DE, United States Lat: 39.133
Local Time: 9:33 PM EDT ( 1:33 GMT) Lon: -75.467
Time Zone: US/Eastern Elev: 29 ft

Show me the last for .
Show Decoded

2014-10-22 21:21 METAR KDOV 230121Z AUTO 31013G21KT 10SM -RA BKN021 OVC026 12/12 A2981 RMK AO2
                 RAE0108DZB0117 CIG 017 RWY19 =
2014-10-22 21:16 METAR KDOV 230116Z AUTO 31015KT 10SM -DZ BKN019 OVC025 12/12 A2981 =
2014-10-22 21:07 METAR KDOV 230107Z AUTO 31012G21KT 10SM OVC024 12/12 A2981 RMK AO2 =
2014-10-22 20:58 METAR KDOV 230058Z AUTO 30016KT 10SM -RA BKN023 OVC028 12/12 A2981 =
2014-10-22 20:42 METAR KDOV 230042Z AUTO 32015KT 10SM -DZ OVC022 12/12 A2981 RMK AO2
                 RAB0007E0040DZB0008E0012 OVC V BKN =
2014-10-22 20:39 METAR KDOV 230039Z AUTO 32014KT 10SM OVC021 12/12 A2981 RMK AO2 OVC V BKN =
2014-10-22 20:06 METAR KDOV 230006Z AUTO 32016G22KT 10SM -RA OVC020 12/12 A2981 RMK AO2 OVC V BKN
                 =
2014-10-22 19:58 METAR KDOV 222358Z AUTO 32016G21KT 10SM OVC020 12/12 A2981 =
2014-10-22 19:53 METAR KDOV 222353Z AUTO 31014G21KT 10SM FEW012 OVC020 12/12 A2981 RMK AO2
                 RAE2350DZB2315E2319B2350 CIG 018V022 =
2014-10-22 19:43 METAR KDOV 222343Z AUTO 31013KT 10SM -RA SCT013 OVC020 12/12 A2981 RMK AO2
                 DZB2315E2319 CIG 012V020 =
2014-10-22 19:38 METAR KDOV 222338Z AUTO 32014KT 9SM -RA BKN014 OVC023 12/12 A2981 RMK AO2
                 DZB2315E2319 CIG 012V018 =
2014-10-22 19:28 METAR KDOV 222328Z AUTO 32014G21KT 10SM -RA BKN012 OVC018 12/12 A2981 RMK AO2
                 DZB2315E2319 CIG 012V016 =
2014-10-22 19:13 METAR KDOV 222313Z AUTO 32014KT 10SM -RA SCT010 OVC016 12/12 A2981 RMK AO2 CIG
                 008V016 =
2014-10-22 19:03 METAR KDOV 222303Z AUTO 32012G20KT 8SM R01/5500FT -RA BKN009 OVC016 12/12 A2981
                 =
2014-10-22 18:58 METAR KDOV 222258Z AUTO 32014G22KT 7SM R01/5000FT -RA BKN010 OVC017 12/12 A2981
                 =
2014-10-22 18:43 METAR KDOV 222243Z AUTO 32013KT 9SM R01/5500FT -RA BKN010 OVC017 12/12 A2981 RMK
                 AO2 CIG 010V018 BKN V SCT =
2014-10-22 18:13 METAR KDOV 222213Z AUTO 32015KT 10SM -RA SCT009 BKN017 OVC027 12/12 A2981 RMK
                 AO2 CIG 009V017 BKN V OVC =
2014-10-22 18:08 METAR KDOV 222208Z AUTO 32014KT 10SM -RA SCT009 BKN014 OVC025 12/12 A2981 RMK
                 AO2 CIG 009V014 =
2014-10-22 17:58 METAR KDOV 222158Z AUTO 33014KT 10SM RA SCT009 BKN013 OVC019 12/12 A2981 =
2014-10-22 17:23 METAR KDOV 222123Z AUTO 32016G23KT 10SM -RA BKN013 OVC021 12/12 A2980 RMK AO2 =
2014-10-22 17:08 METAR KDOV 222108Z AUTO 32015KT 10SM -RA BKN010 OVC015 13/13 A2980 RMK AO2 CIG
                 010V013 =
2014-10-22 16:58 METAR KDOV 222058Z AUTO 33015G22KT 10SM -RA BKN013 13/13 A2980 =
2014-10-22 16:48 METAR KDOV 222048Z AUTO 33017G26KT 10SM -RA BKN012 13/13 A2980 RMK AO2 =
2014-10-22 16:33 METAR KDOV 222033Z AUTO 34017G27KT 10SM -RA BKN012 13/13 A2980 RMK AO2 RAE2028 =
2014-10-22 16:27 METAR KDOV 222027Z AUTO 33018G26KT 10SM OVC011 13/13 A2980 RMK AO2 =
2014-10-22 15:58 METAR KDOV 221958Z AUTO 33018G24KT 10SM -RA OVC011 13/13 A2980 =
2014-10-22 15:40 METAR KDOV 221940Z AUTO 34019G25KT 10SM OVC011 13/13 A2979 RMK AO2 RAB1901E1916
                 $ =
2014-10-22 15:25 METAR KDOV 221925Z AUTO 34018G23KT 10SM BKN010 OVC015 13/13 A2979 RMK AO2
                 RAB1901E1916 $ =
2014-10-22 15:15 METAR KDOV 221915Z AUTO 35019G25KT 10SM OVC011 13/12 A2980 RMK AO2 =
2014-10-22 15:00 METAR KDOV 221900Z AUTO 35018G26KT 10SM -RA OVC012 13/12 A2980 RMK AO2 $ =
2014-10-22 14:58 METAR KDOV 221858Z AUTO 35020KT 10SM OVC012 13/12 A2979 =
2014-10-22 14:48 METAR KDOV 221848Z AUTO 35018G20KT 10SM OVC013 13/12 A2980 RMK AO2 $ =
2014-10-22 14:08 METAR KDOV 221808Z AUTO 36015G21KT 10SM BKN019 OVC025 14/13 A2980 RMK AO2 $ =
2014-10-22 13:58 METAR KDOV 221758Z AUTO 36014KT 350V070 10SM OVC021 14/13 A2980 =
2014-10-22 13:35 METAR KDOV 221735Z AUTO 35013KT 10SM BKN021 OVC031 14/14 A2980 RMK AO2 RAE1706
                 CIG 019V026 $ =
2014-10-22 13:05 METAR KDOV 221705Z AUTO 35014G19KT 10SM SCT017 OVC024 13/13 A2981 RMK AO2 CIG
                 017V024 =
2014-10-22 12:58 METAR KDOV 221658Z AUTO 35015KT 10SM -RA BKN020 OVC024 13/13 A2981 =
2014-10-22 12:25 METAR KDOV 221625Z AUTO 35016KT 9SM -RA FEW008 BKN016 OVC021 13/13 A2982 RMK AO2
                 RAB1558 $ =
2014-10-22 12:15 METAR KDOV 221615Z AUTO 36014G22KT 5SM -RA BR BKN013 OVC021 13/13 A2982 RMK AO2
                 RAB1558E1612 BKN V OVC $ =
2014-10-22 12:11 METAR KDOV 221611Z AUTO 36014G22KT 5SM BR BKN012 OVC021 14/13 A2983 RMK AO2 BKN
                 V OVC =
2014-10-22 11:58 METAR KDOV 221558Z AUTO 36015G18KT 10SM -RA OVC013 14/13 A2983 RMK AO2 SLP105
                 T01390126 $ =
2014-10-22 11:57 METAR KDOV 221557Z AUTO 35014G18KT 10SM -RA OVC013 14/13 A2983 =
2014-10-22 11:53 METAR KDOV 221553Z AUTO 36012G17KT 10SM OVC014 14/13 A2983 RMK AO2 =
2014-10-22 10:58 METAR KDOV 221458Z AUTO 36014G21KT 10SM OVC018 14/13 A2982 RMK AO2 SLP101
                 T01420133 55001 $ =
2014-10-22 10:33 METAR KDOV 221433Z AUTO 36012KT 10SM SCT016 BKN023 OVC030 14/14 A2983 RMK AO2
                 CIG 015V024 $ =
2014-10-22 10:28 METAR KDOV 221428Z AUTO 35011KT 10SM BKN015 BKN024 OVC030 14/14 A2983 RMK AO2
                 CIG 015V024 BKN015 V SCT $ =
2014-10-22 10:18 METAR KDOV 221418Z AUTO 35012KT 10SM SCT014 BKN020 BKN029 OVC050 14/14 A2983 RMK
                 AO2 CIG 020V030 BKN020 V SCT CIG 022 RWY19 $ =
2014-10-22 09:58 METAR KDOV 221358Z AUTO 36011KT 10SM FEW018 BKN050 14/14 A2982 RMK AO2 SLP101
                 T01370137 $ =
2014-10-22 09:43 METAR KDOV 221343Z AUTO 36011KT 10SM SCT012 SCT017 SCT023 BKN048 OVC060 14/14
                 A2983 RMK AO2 CIG 014 RWY19 $ =
2014-10-22 09:38 METAR KDOV 221338Z AUTO 35009KT 10SM SCT013 BKN021 BKN048 OVC060 14/14 A2983 RMK
                 AO2 CIG 013V021 BKN021 V OVC =
2014-10-22 09:23 METAR KDOV 221323Z AUTO 36009KT 10SM BKN013 OVC019 14/14 A2983 RMK AO2 BKN V OVC
                 $ =
2014-10-22 09:03 METAR KDOV 221303Z AUTO 35008KT 10SM BKN013 BKN019 OVC049 14/14 A2983 RMK AO2 =
2014-10-22 08:58 METAR KDOV 221258Z AUTO 35011KT 10SM BKN015 BKN022 OVC049 13/13 A2982 RMK AO2
                 CIG 015V019 SLP101 T01330133 $ =
2014-10-22 08:38 METAR KDOV 221238Z AUTO 35010KT 10SM SCT013 BKN018 BKN048 OVC060 13/13 A2983 RMK
                 AO2 CIG 013V018 $ =
2014-10-22 08:33 METAR KDOV 221233Z AUTO 35009KT 10SM BKN013 BKN046 OVC060 13/13 A2983 RMK AO2 $
                 =
2014-10-22 08:28 METAR KDOV 221228Z AUTO 35009KT 10SM FEW009 BKN015 BKN060 13/13 A2983 RMK AO2
                 CIG 011V015 $ =
2014-10-22 08:08 METAR KDOV 221208Z AUTO 36011KT 10SM OVC011 13/13 A2983 =
2014-10-22 08:03 METAR KDOV 221203Z AUTO 36009KT 10SM OVC010 13/13 A2982 =
2014-10-22 07:58 METAR KDOV 221158Z AUTO 36009KT 10SM OVC009 13/13 A2982 =
2014-10-22 07:23 METAR KDOV 221123Z AUTO 35011KT 10SM OVC009 13/13 A2981 RMK AO2 CIG 008V010 $ =
2014-10-22 07:18 METAR KDOV 221118Z AUTO 35011KT 10SM OVC010 13/13 A2981 RMK AO2 CIG 008V010 =
2014-10-22 07:03 METAR KDOV 221103Z AUTO 35010KT 10SM OVC009 13/13 A2981 =
2014-10-22 06:58 METAR KDOV 221058Z AUTO 36010KT 10SM BKN007 OVC012 13/13 A2981 =
2014-10-22 06:18 METAR KDOV 221018Z AUTO 34006KT 10SM BKN007 OVC011 13/13 A2980 RMK AO2 CIG
                 007V010 $ =
2014-10-22 06:13 METAR KDOV 221013Z AUTO 34007KT 10SM OVC009 13/13 A2980 RMK AO2 CIG 009V011 $ =
2014-10-22 06:08 METAR KDOV 221008Z AUTO 34008KT 10SM OVC010 13/13 A2980 RMK AO2 $ =
2014-10-22 05:58 METAR KDOV 220958Z AUTO 34008KT 10SM OVC011 13/13 A2980 =
2014-10-22 05:33 METAR KDOV 220933Z AUTO 33010KT 10SM FEW008 BKN014 OVC039 13/13 A2979 RMK AO2 =
2014-10-22 05:08 METAR KDOV 220908Z AUTO 33010KT 10SM FEW007 BKN015 OVC021 13/13 A2979 =
2014-10-22 04:58 METAR KDOV 220858Z AUTO 33011KT 10SM BKN014 OVC028 13/13 A2979 RMK AO2
                 RAE0818DZB0818E0822 BKN V OVC SLP091 P0000 60013 T01280128 56008 $ =
2014-10-22 04:21 METAR KDOV 220821Z AUTO 30007KT 10SM SCT006 BKN013 OVC060 13/13 A2979 RMK AO2
                 CIG 011V060 $ =
2014-10-22 04:13 METAR KDOV 220813Z AUTO 33007KT 10SM -RA SCT007 BKN011 OVC060 13/13 A2979 RMK
                 AO2 CIG 006V011 $ =
2014-10-22 04:03 METAR KDOV 220803Z AUTO 33009KT 7SM R01/5000FT -RA BKN006 BKN011 OVC060 13/13
                 A2979 RMK AO2 CIG 006V011 $ =
2014-10-22 03:58 METAR KDOV 220758Z AUTO 33008KT 6SM R01/5000FT -RA BR OVC008 13/13 A2979 =
2014-10-22 03:53 METAR KDOV 220753Z AUTO 32006KT 6SM R01/5000FT -RA BR OVC011 13/13 A2979 RMK AO2
                 CIG 011V015 $ =
2014-10-22 03:43 METAR KDOV 220743Z AUTO 30008KT 5SM R01/5000FT -RA BR BKN016 OVC060 13/13 A2979
                 RMK AO2 CIG 016V033 $ =
2014-10-22 03:38 METAR KDOV 220738Z AUTO 31007KT 5SM R01/5000FT -RA BR SCT015 BKN021 OVC060 13/13
                 A2979 RMK AO2 CIG 015V047 $ =
2014-10-22 03:33 METAR KDOV 220733Z AUTO 31008KT 6SM R01/5000FT -RA BR SCT015 BKN037 OVC060 13/13
                 A2978 RMK AO2 CIG 026 RWY19 $ =
2014-10-22 02:58 METAR KDOV 220658Z AUTO 31007KT 5SM R01/5000FT -RA BR OVC016 13/13 A2980 RMK AO2
                 LTG DSNT N OVC V BKN SLP094 P0008 T01310131 $ =
2014-10-22 02:53 METAR KDOV 220653Z AUTO 31007KT 5SM R01/4500FT -RA BR BKN016 OVC040 13/13 A2980
                 RMK AO2 LTG DSNT N =
2014-10-22 02:43 METAR KDOV 220643Z AUTO 31007KT 7SM R01/5000FT -RA BKN017 OVC050 13/13 A2980 RMK
                 AO2 LTG DSNT N CIG 017V049 BKN V SCT $ =
2014-10-22 02:33 METAR KDOV 220633Z AUTO 30006KT 5SM R01/5500FT -RA BR FEW016 OVC049 13/13 A2981
                 RMK AO2 =
2014-10-22 01:58 METAR KDOV 220558Z AUTO 31007KT 7SM -RA FEW049 SCT060 13/13 A2981 RMK AO2 SLP098
                 P0007 60010 T01310131 10140 20124 58009 $ =
2014-10-22 01:03 METAR KDOV 220503Z AUTO 26005KT 7SM -RA BKN047 BKN055 BKN065 13/13 A2983 RMK AO2
                 =
2014-10-22 00:58 METAR KDOV 220458Z AUTO 26005KT 7SM R01/5500FT -RA SCT047 BKN065 13/13 A2983 RMK
                 AO2 SLP105 P0002 T01330133 402080117 =
2014-10-22 00:43 METAR KDOV 220443Z AUTO 24005KT 8SM R01/5500FT -RA FEW065 13/13 A2983 RMK AO2 =
2014-10-22 00:39 METAR KDOV 220439Z AUTO 25005KT 9SM CLR 13/13 A2983 RMK AO2 =
2014-10-21 23:58 METAR KDOV 220358Z AUTO 25007KT 10SM -RA BKN049 14/12 A2984 RMK AO2 RAB0314
                 SLP108 P0001 T01360123 =
2014-10-21 23:13 METAR KDOV 220313Z AUTO 31002KT 10SM -RA BKN055 13/11 A2984 RMK AO2 LTG DSNT S =
2014-10-21 22:58 METAR KDOV 220258Z AUTO 33004KT 10SM SCT095 13/11 A2984 =
2014-10-21 21:58 METAR KDOV 220158Z AUTO 31003KT 10SM OVC140 13/11 A2984 =

Support USWX by starting your Amazon purchase here.